sensor_id;sensor_type;location;lat;lon;timestamp;temperature;humidity
47336;DHT22;33068;51.990;5.926;2022-11-20T00:02:28;-2.40;99.90
47336;DHT22;33068;51.990;5.926;2022-11-20T00:04:58;-2.30;99.90
47336;DHT22;33068;51.990;5.926;2022-11-20T00:07:27;-2.40;99.90
47336;DHT22;33068;51.990;5.926;2022-11-20T00:09:54;-2.20;99.90
47336;DHT22;33068;51.990;5.926;2022-11-20T00:12:21;-2.40;99.90
47336;DHT22;33068;51.990;5.926;2022-11-20T00:14:49;-2.40;99.90
47336;DHT22;33068;51.990;5.926;2022-11-20T00:17:16;-2.40;99.90
47336;DHT22;33068;51.990;5.926;2022-11-20T00:19:43;-2.20;99.90
47336;DHT22;33068;51.990;5.926;2022-11-20T00:22:10;-2.50;99.90
47336;DHT22;33068;51.990;5.926;2022-11-20T00:24:39;-2.50;99.90
47336;DHT22;33068;51.990;5.926;2022-11-20T00:27:06;-2.50;99.90
47336;DHT22;33068;51.990;5.926;2022-11-20T00:29:33;-2.50;99.90
47336;DHT22;33068;51.990;5.926;2022-11-20T00:32:00;-2.60;99.90
47336;DHT22;33068;51.990;5.926;2022-11-20T00:34:31;-2.60;99.90
47336;DHT22;33068;51.990;5.926;2022-11-20T00:37:00;-2.60;99.90
47336;DHT22;33068;51.990;5.926;2022-11-20T00:39:27;-2.60;99.90
47336;DHT22;33068;51.990;5.926;2022-11-20T00:41:59;-2.60;99.90
47336;DHT22;33068;51.990;5.926;2022-11-20T00:44:26;-2.60;99.90
47336;DHT22;33068;51.990;5.926;2022-11-20T00:46:55;-2.60;99.90
47336;DHT22;33068;51.990;5.926;2022-11-20T00:49:24;-2.90;99.90
47336;DHT22;33068;51.990;5.926;2022-11-20T00:51:53;-2.60;99.90
47336;DHT22;33068;51.990;5.926;2022-11-20T00:54:23;-2.60;99.90
47336;DHT22;33068;51.990;5.926;2022-11-20T00:56:52;-2.60;99.90
47336;DHT22;33068;51.990;5.926;2022-11-20T00:59:21;-2.50;99.90
47336;DHT22;33068;51.990;5.926;2022-11-20T01:01:48;-2.50;99.90
47336;DHT22;33068;51.990;5.926;2022-11-20T01:04:15;-2.50;99.90
47336;DHT22;33068;51.990;5.926;2022-11-20T01:06:44;-2.50;99.90
47336;DHT22;33068;51.990;5.926;2022-11-20T01:09:13;-2.50;99.90
47336;DHT22;33068;51.990;5.926;2022-11-20T01:11:42;-2.50;99.90
47336;DHT22;33068;51.990;5.926;2022-11-20T01:14:16;-2.60;99.90
47336;DHT22;33068;51.990;5.926;2022-11-20T01:16:49;-2.90;99.90
47336;DHT22;33068;51.990;5.926;2022-11-20T01:19:18;-2.70;99.90
47336;DHT22;33068;51.990;5.926;2022-11-20T01:21:50;-2.60;99.90
47336;DHT22;33068;51.990;5.926;2022-11-20T01:24:25;-2.70;99.90
47336;DHT22;33068;51.990;5.926;2022-11-20T01:26:56;-2.70;99.90
47336;DHT22;33068;51.990;5.926;2022-11-20T01:29:26;-2.70;99.90
47336;DHT22;33068;51.990;5.926;2022-11-20T01:31:57;-2.60;99.90
47336;DHT22;33068;51.990;5.926;2022-11-20T01:34:27;-2.60;99.90
47336;DHT22;33068;51.990;5.926;2022-11-20T01:36:59;-2.40;99.90
47336;DHT22;33068;51.990;5.926;2022-11-20T01:39:27;-2.70;99.90
47336;DHT22;33068;51.990;5.926;2022-11-20T01:41:55;-2.60;99.90
47336;DHT22;33068;51.990;5.926;2022-11-20T01:44:48;-2.70;99.90
47336;DHT22;33068;51.990;5.926;2022-11-20T01:47:21;-2.70;99.90
47336;DHT22;33068;51.990;5.926;2022-11-20T01:49:55;-2.70;99.90
47336;DHT22;33068;51.990;5.926;2022-11-20T01:52:26;-2.70;99.90
47336;DHT22;33068;51.990;5.926;2022-11-20T01:54:57;-2.70;99.90
47336;DHT22;33068;51.990;5.926;2022-11-20T01:57:27;-2.70;99.90
47336;DHT22;33068;51.990;5.926;2022-11-20T02:00:00;-2.80;99.90
47336;DHT22;33068;51.990;5.926;2022-11-20T02:02:42;-2.80;99.90
47336;DHT22;33068;51.990;5.926;2022-11-20T02:05:19;-2.80;99.90
47336;DHT22;33068;51.990;5.926;2022-11-20T02:07:50;-2.50;99.90
47336;DHT22;33068;51.990;5.926;2022-11-20T02:10:26;-2.90;99.90
47336;DHT22;33068;51.990;5.926;2022-11-20T02:12:54;-2.80;99.90
47336;DHT22;33068;51.990;5.926;2022-11-20T02:15:43;-2.80;99.90
47336;DHT22;33068;51.990;5.926;2022-11-20T02:18:21;-2.80;99.90
47336;DHT22;33068;51.990;5.926;2022-11-20T02:20:54;-2.80;99.90
47336;DHT22;33068;51.990;5.926;2022-11-20T02:23:30;-2.90;99.90
47336;DHT22;33068;51.990;5.926;2022-11-20T02:26:06;-2.80;99.90
47336;DHT22;33068;51.990;5.926;2022-11-20T02:28:37;-2.90;99.90
47336;DHT22;33068;51.990;5.926;2022-11-20T02:31:05;-2.80;99.90
47336;DHT22;33068;51.990;5.926;2022-11-20T02:33:32;-2.80;99.90
47336;DHT22;33068;51.990;5.926;2022-11-20T02:36:01;-2.50;99.90
47336;DHT22;33068;51.990;5.926;2022-11-20T02:38:30;-2.90;99.90
47336;DHT22;33068;51.990;5.926;2022-11-20T02:40:58;-2.80;99.90
47336;DHT22;33068;51.990;5.926;2022-11-20T02:43:30;-2.90;99.90
47336;DHT22;33068;51.990;5.926;2022-11-20T02:45:58;-2.60;99.90
47336;DHT22;33068;51.990;5.926;2022-11-20T02:48:25;-2.90;99.90
47336;DHT22;33068;51.990;5.926;2022-11-20T02:50:52;-3.00;99.90
47336;DHT22;33068;51.990;5.926;2022-11-20T02:53:20;-2.90;99.90
47336;DHT22;33068;51.990;5.926;2022-11-20T02:55:47;-2.90;99.90
47336;DHT22;33068;51.990;5.926;2022-11-20T02:58:15;-2.90;99.90
47336;DHT22;33068;51.990;5.926;2022-11-20T03:00:53;-2.90;99.90
47336;DHT22;33068;51.990;5.926;2022-11-20T03:03:26;-3.00;99.90
47336;DHT22;33068;51.990;5.926;2022-11-20T03:05:54;-3.00;99.90
47336;DHT22;33068;51.990;5.926;2022-11-20T03:08:23;-2.90;99.90
47336;DHT22;33068;51.990;5.926;2022-11-20T03:10:50;-2.90;99.90
47336;DHT22;33068;51.990;5.926;2022-11-20T03:13:20;-3.00;99.90
47336;DHT22;33068;51.990;5.926;2022-11-20T03:15:53;-2.70;99.90
47336;DHT22;33068;51.990;5.926;2022-11-20T03:18:24;-3.00;99.90
47336;DHT22;33068;51.990;5.926;2022-11-20T03:21:00;-2.90;99.90
47336;DHT22;33068;51.990;5.926;2022-11-20T03:23:30;-3.00;99.90
47336;DHT22;33068;51.990;5.926;2022-11-20T03:26:11;-2.80;99.90
47336;DHT22;33068;51.990;5.926;2022-11-20T03:28:38;-3.10;99.90
47336;DHT22;33068;51.990;5.926;2022-11-20T03:31:12;-3.20;99.90
47336;DHT22;33068;51.990;5.926;2022-11-20T03:33:41;-3.20;99.90
47336;DHT22;33068;51.990;5.926;2022-11-20T03:36:10;-3.20;99.90
47336;DHT22;33068;51.990;5.926;2022-11-20T03:38:38;-3.10;99.90
47336;DHT22;33068;51.990;5.926;2022-11-20T03:41:07;-3.10;99.90
47336;DHT22;33068;51.990;5.926;2022-11-20T03:43:35;-2.90;99.90
47336;DHT22;33068;51.990;5.926;2022-11-20T03:46:02;-3.10;99.90
47336;DHT22;33068;51.990;5.926;2022-11-20T03:48:31;-3.00;99.90
47336;DHT22;33068;51.990;5.926;2022-11-20T03:51:10;-3.10;99.90
47336;DHT22;33068;51.990;5.926;2022-11-20T03:53:37;-3.10;99.90
47336;DHT22;33068;51.990;5.926;2022-11-20T03:56:05;-3.20;99.90
47336;DHT22;33068;51.990;5.926;2022-11-20T03:58:33;-3.30;99.90
47336;DHT22;33068;51.990;5.926;2022-11-20T04:01:05;-3.20;99.90
47336;DHT22;33068;51.990;5.926;2022-11-20T04:03:36;-3.30;99.90
47336;DHT22;33068;51.990;5.926;2022-11-20T04:06:05;-3.40;99.90
47336;DHT22;33068;51.990;5.926;2022-11-20T04:08:34;-3.40;99.90
47336;DHT22;33068;51.990;5.926;2022-11-20T04:11:12;-3.40;99.90
47336;DHT22;33068;51.990;5.926;2022-11-20T04:13:40;-3.40;99.90
47336;DHT22;33068;51.990;5.926;2022-11-20T04:16:09;-3.40;99.90
47336;DHT22;33068;51.990;5.926;2022-11-20T04:18:38;-3.40;99.90
47336;DHT22;33068;51.990;5.926;2022-11-20T04:21:05;-3.20;99.90
47336;DHT22;33068;51.990;5.926;2022-11-20T04:23:33;-3.30;99.90
47336;DHT22;33068;51.990;5.926;2022-11-20T04:26:01;-3.40;99.90
47336;DHT22;33068;51.990;5.926;2022-11-20T04:28:29;-3.30;99.90
47336;DHT22;33068;51.990;5.926;2022-11-20T04:31:02;-3.20;99.90
47336;DHT22;33068;51.990;5.926;2022-11-20T04:33:30;-3.30;99.90
47336;DHT22;33068;51.990;5.926;2022-11-20T04:36:05;-3.30;99.90
47336;DHT22;33068;51.990;5.926;2022-11-20T04:38:35;-3.30;99.90
47336;DHT22;33068;51.990;5.926;2022-11-20T04:41:04;-3.40;99.90
47336;DHT22;33068;51.990;5.926;2022-11-20T04:43:34;-3.40;99.90
47336;DHT22;33068;51.990;5.926;2022-11-20T04:46:02;-3.50;99.90
47336;DHT22;33068;51.990;5.926;2022-11-20T04:48:29;-3.60;99.90
47336;DHT22;33068;51.990;5.926;2022-11-20T04:50:57;-3.60;99.90
47336;DHT22;33068;51.990;5.926;2022-11-20T04:53:26;-3.60;99.90
47336;DHT22;33068;51.990;5.926;2022-11-20T04:55:59;-3.50;99.90
47336;DHT22;33068;51.990;5.926;2022-11-20T04:58:27;-3.60;99.90
47336;DHT22;33068;51.990;5.926;2022-11-20T05:01:00;-3.60;99.90
47336;DHT22;33068;51.990;5.926;2022-11-20T05:03:28;-3.40;99.90
47336;DHT22;33068;51.990;5.926;2022-11-20T05:05:55;-3.50;99.90
47336;DHT22;33068;51.990;5.926;2022-11-20T05:08:22;-3.60;99.90
47336;DHT22;33068;51.990;5.926;2022-11-20T05:10:51;-3.50;99.90
47336;DHT22;33068;51.990;5.926;2022-11-20T05:13:19;-3.60;99.90
47336;DHT22;33068;51.990;5.926;2022-11-20T05:15:46;-3.50;99.90
47336;DHT22;33068;51.990;5.926;2022-11-20T05:18:13;-3.50;99.90
47336;DHT22;33068;51.990;5.926;2022-11-20T05:20:41;-3.50;99.90
47336;DHT22;33068;51.990;5.926;2022-11-20T05:23:08;-3.50;99.90
47336;DHT22;33068;51.990;5.926;2022-11-20T05:25:35;-3.60;99.90
47336;DHT22;33068;51.990;5.926;2022-11-20T05:28:04;-3.50;99.90
47336;DHT22;33068;51.990;5.926;2022-11-20T05:30:33;-3.50;99.90
47336;DHT22;33068;51.990;5.926;2022-11-20T05:33:04;-3.60;99.90
47336;DHT22;33068;51.990;5.926;2022-11-20T05:35:31;-3.70;99.90
47336;DHT22;33068;51.990;5.926;2022-11-20T05:37:58;-3.60;99.90
47336;DHT22;33068;51.990;5.926;2022-11-20T05:40:59;-3.80;99.90
47336;DHT22;33068;51.990;5.926;2022-11-20T05:43:51;-3.70;99.90
47336;DHT22;33068;51.990;5.926;2022-11-20T05:46:29;-3.40;99.90
47336;DHT22;33068;51.990;5.926;2022-11-20T05:49:28;-3.70;99.90
47336;DHT22;33068;51.990;5.926;2022-11-20T05:52:20;-3.70;99.90
47336;DHT22;33068;51.990;5.926;2022-11-20T05:55:21;-3.60;99.90
47336;DHT22;33068;51.990;5.926;2022-11-20T05:57:59;-3.70;99.90
47336;DHT22;33068;51.990;5.926;2022-11-20T06:00:28;-3.70;99.90
47336;DHT22;33068;51.990;5.926;2022-11-20T06:02:55;-3.80;99.90
47336;DHT22;33068;51.990;5.926;2022-11-20T06:05:27;-3.80;99.90
47336;DHT22;33068;51.990;5.926;2022-11-20T06:08:05;-3.80;99.90
47336;DHT22;33068;51.990;5.926;2022-11-20T06:10:36;-3.90;99.90
47336;DHT22;33068;51.990;5.926;2022-11-20T06:13:04;-3.80;99.90
47336;DHT22;33068;51.990;5.926;2022-11-20T06:15:32;-3.80;99.90
47336;DHT22;33068;51.990;5.926;2022-11-20T06:18:01;-3.90;99.90
47336;DHT22;33068;51.990;5.926;2022-11-20T06:20:29;-3.40;99.90
47336;DHT22;33068;51.990;5.926;2022-11-20T06:22:57;-3.90;99.90
47336;DHT22;33068;51.990;5.926;2022-11-20T06:25:28;-4.00;99.90
47336;DHT22;33068;51.990;5.926;2022-11-20T06:27:58;-4.00;99.90
47336;DHT22;33068;51.990;5.926;2022-11-20T06:30:28;-4.00;99.90
47336;DHT22;33068;51.990;5.926;2022-11-20T06:33:08;-4.00;99.90
47336;DHT22;33068;51.990;5.926;2022-11-20T06:35:35;-3.90;99.90
47336;DHT22;33068;51.990;5.926;2022-11-20T06:38:05;-3.60;99.90
47336;DHT22;33068;51.990;5.926;2022-11-20T06:40:32;-3.90;99.90
47336;DHT22;33068;51.990;5.926;2022-11-20T06:42:59;-4.00;99.90
47336;DHT22;33068;51.990;5.926;2022-11-20T06:45:28;-3.80;99.90
47336;DHT22;33068;51.990;5.926;2022-11-20T06:47:57;-3.90;99.90
47336;DHT22;33068;51.990;5.926;2022-11-20T06:50:27;-3.90;99.90
47336;DHT22;33068;51.990;5.926;2022-11-20T06:53:01;-3.60;99.90
47336;DHT22;33068;51.990;5.926;2022-11-20T06:55:30;-3.70;99.90
47336;DHT22;33068;51.990;5.926;2022-11-20T06:58:01;-4.00;99.90
47336;DHT22;33068;51.990;5.926;2022-11-20T07:00:29;-4.00;99.90
47336;DHT22;33068;51.990;5.926;2022-11-20T07:02:56;-4.00;99.90
47336;DHT22;33068;51.990;5.926;2022-11-20T07:05:35;-3.90;99.90
47336;DHT22;33068;51.990;5.926;2022-11-20T07:08:31;-3.70;99.90
47336;DHT22;33068;51.990;5.926;2022-11-20T07:11:22;-3.90;99.90
47336;DHT22;33068;51.990;5.926;2022-11-20T07:14:28;-4.00;99.90
47336;DHT22;33068;51.990;5.926;2022-11-20T07:17:27;-4.00;99.90
47336;DHT22;33068;51.990;5.926;2022-11-20T07:20:01;-4.00;99.90
47336;DHT22;33068;51.990;5.926;2022-11-20T07:22:35;-4.00;99.90
47336;DHT22;33068;51.990;5.926;2022-11-20T07:25:16;-3.80;99.90
47336;DHT22;33068;51.990;5.926;2022-11-20T07:27:50;-4.30;99.90
47336;DHT22;33068;51.990;5.926;2022-11-20T07:30:34;-4.00;99.90
47336;DHT22;33068;51.990;5.926;2022-11-20T07:33:01;-4.00;99.90
47336;DHT22;33068;51.990;5.926;2022-11-20T07:35:58;-3.90;99.90
47336;DHT22;33068;51.990;5.926;2022-11-20T07:38:37;-4.00;99.90
47336;DHT22;33068;51.990;5.926;2022-11-20T07:44:25;-4.00;99.90
47336;DHT22;33068;51.990;5.926;2022-11-20T07:48:29;-3.90;99.90
47336;DHT22;33068;51.990;5.926;2022-11-20T07:50:40;-3.90;99.90
47336;DHT22;33068;51.990;5.926;2022-11-20T07:53:24;-3.80;99.90
47336;DHT22;33068;51.990;5.926;2022-11-20T07:56:52;-3.80;99.90
47336;DHT22;33068;51.990;5.926;2022-11-20T07:59:59;-3.70;99.90
47336;DHT22;33068;51.990;5.926;2022-11-20T08:14:15;-3.60;99.90
47336;DHT22;33068;51.990;5.926;2022-11-20T08:16:51;-3.60;99.90
47336;DHT22;33068;51.990;5.926;2022-11-20T08:23:19;-3.40;99.90
47336;DHT22;33068;51.990;5.926;2022-11-20T08:29:52;-3.30;99.90
47336;DHT22;33068;51.990;5.926;2022-11-20T08:35:39;-3.10;99.90
47336;DHT22;33068;51.990;5.926;2022-11-20T08:38:29;-3.10;99.90
47336;DHT22;33068;51.990;5.926;2022-11-20T08:41:15;-3.00;99.90
47336;DHT22;33068;51.990;5.926;2022-11-20T08:47:33;-2.60;99.90
47336;DHT22;33068;51.990;5.926;2022-11-20T08:50:09;-2.80;99.90
47336;DHT22;33068;51.990;5.926;2022-11-20T08:55:45;-2.70;99.90
47336;DHT22;33068;51.990;5.926;2022-11-20T08:58:13;-2.70;99.90
47336;DHT22;33068;51.990;5.926;2022-11-20T09:01:14;-2.50;99.90
47336;DHT22;33068;51.990;5.926;2022-11-20T09:08:09;-2.20;99.90
47336;DHT22;33068;51.990;5.926;2022-11-20T09:11:10;-2.10;99.90
47336;DHT22;33068;51.990;5.926;2022-11-20T09:13:51;-2.00;99.90
47336;DHT22;33068;51.990;5.926;2022-11-20T09:16:51;-1.90;99.90
47336;DHT22;33068;51.990;5.926;2022-11-20T09:19:26;-1.90;99.90
47336;DHT22;33068;51.990;5.926;2022-11-20T09:22:03;-1.80;99.90
47336;DHT22;33068;51.990;5.926;2022-11-20T09:24:31;-1.80;99.90
47336;DHT22;33068;51.990;5.926;2022-11-20T09:27:05;-1.70;99.90
47336;DHT22;33068;51.990;5.926;2022-11-20T09:29:36;-1.70;99.90
47336;DHT22;33068;51.990;5.926;2022-11-20T09:32:29;-1.70;99.90
47336;DHT22;33068;51.990;5.926;2022-11-20T09:34:56;-1.60;99.90
47336;DHT22;33068;51.990;5.926;2022-11-20T09:37:38;-1.50;99.90
47336;DHT22;33068;51.990;5.926;2022-11-20T09:40:20;-1.40;99.90
47336;DHT22;33068;51.990;5.926;2022-11-20T09:43:19;-1.20;99.90
47336;DHT22;33068;51.990;5.926;2022-11-20T09:46:12;-1.30;99.90
47336;DHT22;33068;51.990;5.926;2022-11-20T09:49:53;-1.30;99.90
47336;DHT22;33068;51.990;5.926;2022-11-20T09:56:08;-1.50;99.90
47336;DHT22;33068;51.990;5.926;2022-11-20T10:03:14;-1.00;99.90
47336;DHT22;33068;51.990;5.926;2022-11-20T10:05:46;-0.90;99.90
47336;DHT22;33068;51.990;5.926;2022-11-20T10:08:19;-0.80;99.90
47336;DHT22;33068;51.990;5.926;2022-11-20T10:33:25;-0.10;99.90
47336;DHT22;33068;51.990;5.926;2022-11-20T10:40:44;0.20;99.90
47336;DHT22;33068;51.990;5.926;2022-11-20T10:44:00;0.30;99.90
47336;DHT22;33068;51.990;5.926;2022-11-20T10:46:54;0.50;99.90
47336;DHT22;33068;51.990;5.926;2022-11-20T10:49:24;0.70;99.90
47336;DHT22;33068;51.990;5.926;2022-11-20T10:51:59;0.70;99.90
47336;DHT22;33068;51.990;5.926;2022-11-20T10:54:36;0.70;99.90
47336;DHT22;33068;51.990;5.926;2022-11-20T10:57:07;0.70;99.90
47336;DHT22;33068;51.990;5.926;2022-11-20T11:00:00;0.70;99.90
47336;DHT22;33068;51.990;5.926;2022-11-20T11:02:43;0.90;99.90
47336;DHT22;33068;51.990;5.926;2022-11-20T11:05:29;0.70;99.90
47336;DHT22;33068;51.990;5.926;2022-11-20T11:08:05;0.70;99.90
47336;DHT22;33068;51.990;5.926;2022-11-20T11:10:48;0.70;99.90
47336;DHT22;33068;51.990;5.926;2022-11-20T11:13:41;1.10;99.90
47336;DHT22;33068;51.990;5.926;2022-11-20T11:20:53;1.40;99.90
47336;DHT22;33068;51.990;5.926;2022-11-20T11:23:39;1.10;99.90
47336;DHT22;33068;51.990;5.926;2022-11-20T11:26:29;1.20;99.90
47336;DHT22;33068;51.990;5.926;2022-11-20T11:32:06;1.30;99.90
47336;DHT22;33068;51.990;5.926;2022-11-20T11:34:34;1.40;99.90
47336;DHT22;33068;51.990;5.926;2022-11-20T11:37:36;1.50;99.90
47336;DHT22;33068;51.990;5.926;2022-11-20T11:44:17;1.50;99.90
47336;DHT22;33068;51.990;5.926;2022-11-20T11:47:04;1.60;99.90
47336;DHT22;33068;51.990;5.926;2022-11-20T11:49:32;1.70;99.90
47336;DHT22;33068;51.990;5.926;2022-11-20T11:52:08;1.60;99.90
47336;DHT22;33068;51.990;5.926;2022-11-20T11:54:47;1.70;99.90
47336;DHT22;33068;51.990;5.926;2022-11-20T11:57:20;1.60;99.90
47336;DHT22;33068;51.990;5.926;2022-11-20T12:00:00;1.60;99.90
47336;DHT22;33068;51.990;5.926;2022-11-20T12:02:36;1.70;99.90
47336;DHT22;33068;51.990;5.926;2022-11-20T12:05:17;2.00;99.90
47336;DHT22;33068;51.990;5.926;2022-11-20T12:07:48;1.80;99.90
47336;DHT22;33068;51.990;5.926;2022-11-20T12:10:37;1.70;99.90
47336;DHT22;33068;51.990;5.926;2022-11-20T12:13:18;1.60;99.90
47336;DHT22;33068;51.990;5.926;2022-11-20T12:15:50;1.60;99.90
47336;DHT22;33068;51.990;5.926;2022-11-20T12:18:21;1.50;99.90
47336;DHT22;33068;51.990;5.926;2022-11-20T12:20:59;1.50;99.90
47336;DHT22;33068;51.990;5.926;2022-11-20T12:23:50;1.50;99.90
47336;DHT22;33068;51.990;5.926;2022-11-20T12:26:35;1.80;99.90
47336;DHT22;33068;51.990;5.926;2022-11-20T12:29:15;1.60;99.90
47336;DHT22;33068;51.990;5.926;2022-11-20T12:32:06;1.60;99.90
47336;DHT22;33068;51.990;5.926;2022-11-20T12:34:47;1.60;99.90
47336;DHT22;33068;51.990;5.926;2022-11-20T12:37:28;1.70;99.90
47336;DHT22;33068;51.990;5.926;2022-11-20T12:40:02;1.70;99.90
47336;DHT22;33068;51.990;5.926;2022-11-20T12:48:38;2.00;99.90
47336;DHT22;33068;51.990;5.926;2022-11-20T12:51:23;1.90;99.90
47336;DHT22;33068;51.990;5.926;2022-11-20T12:54:03;1.90;99.90
47336;DHT22;33068;51.990;5.926;2022-11-20T12:56:37;2.20;99.90
47336;DHT22;33068;51.990;5.926;2022-11-20T12:59:23;2.10;99.90
47336;DHT22;33068;51.990;5.926;2022-11-20T13:02:02;2.40;99.90
47336;DHT22;33068;51.990;5.926;2022-11-20T13:05:01;2.20;99.90
47336;DHT22;33068;51.990;5.926;2022-11-20T13:07:30;2.30;99.90
47336;DHT22;33068;51.990;5.926;2022-11-20T13:09:59;2.40;99.90
47336;DHT22;33068;51.990;5.926;2022-11-20T13:12:31;2.50;99.90
47336;DHT22;33068;51.990;5.926;2022-11-20T13:15:07;2.30;99.90
47336;DHT22;33068;51.990;5.926;2022-11-20T13:17:43;2.20;99.90
47336;DHT22;33068;51.990;5.926;2022-11-20T13:20:15;2.20;99.90
47336;DHT22;33068;51.990;5.926;2022-11-20T13:22:44;2.20;99.90
47336;DHT22;33068;51.990;5.926;2022-11-20T13:25:22;2.10;99.90
47336;DHT22;33068;51.990;5.926;2022-11-20T13:27:50;2.10;99.90
47336;DHT22;33068;51.990;5.926;2022-11-20T13:30:19;2.20;99.90
47336;DHT22;33068;51.990;5.926;2022-11-20T13:32:54;2.10;99.90
47336;DHT22;33068;51.990;5.926;2022-11-20T13:35:30;2.20;99.90
47336;DHT22;33068;51.990;5.926;2022-11-20T13:38:09;2.20;99.90
47336;DHT22;33068;51.990;5.926;2022-11-20T13:40:38;2.20;99.90
47336;DHT22;33068;51.990;5.926;2022-11-20T13:43:14;2.20;99.90
47336;DHT22;33068;51.990;5.926;2022-11-20T13:45:42;2.20;99.90
47336;DHT22;33068;51.990;5.926;2022-11-20T13:48:24;2.10;99.90
47336;DHT22;33068;51.990;5.926;2022-11-20T13:51:08;2.10;99.90
47336;DHT22;33068;51.990;5.926;2022-11-20T13:56:38;2.20;99.90
47336;DHT22;33068;51.990;5.926;2022-11-20T13:59:15;2.20;99.90
47336;DHT22;33068;51.990;5.926;2022-11-20T14:01:48;2.20;99.90
47336;DHT22;33068;51.990;5.926;2022-11-20T14:04:21;2.10;99.90
47336;DHT22;33068;51.990;5.926;2022-11-20T14:06:52;2.20;99.90
47336;DHT22;33068;51.990;5.926;2022-11-20T14:09:27;2.20;99.90
47336;DHT22;33068;51.990;5.926;2022-11-20T14:11:54;2.20;99.90
47336;DHT22;33068;51.990;5.926;2022-11-20T14:14:24;2.20;99.90
47336;DHT22;33068;51.990;5.926;2022-11-20T14:17:05;2.20;99.90
47336;DHT22;33068;51.990;5.926;2022-11-20T14:19:33;2.20;99.90
47336;DHT22;33068;51.990;5.926;2022-11-20T14:22:15;2.20;99.90
47336;DHT22;33068;51.990;5.926;2022-11-20T14:24:44;2.10;99.90
47336;DHT22;33068;51.990;5.926;2022-11-20T14:27:13;2.20;99.90
47336;DHT22;33068;51.990;5.926;2022-11-20T14:29:41;2.20;99.90
47336;DHT22;33068;51.990;5.926;2022-11-20T14:32:10;2.10;99.90
47336;DHT22;33068;51.990;5.926;2022-11-20T14:34:40;2.10;99.90
47336;DHT22;33068;51.990;5.926;2022-11-20T14:37:12;2.10;99.90
47336;DHT22;33068;51.990;5.926;2022-11-20T14:39:42;2.00;99.90
47336;DHT22;33068;51.990;5.926;2022-11-20T14:42:16;2.10;99.90
47336;DHT22;33068;51.990;5.926;2022-11-20T14:44:44;2.00;99.90
47336;DHT22;33068;51.990;5.926;2022-11-20T14:47:13;2.00;99.90
47336;DHT22;33068;51.990;5.926;2022-11-20T14:49:43;2.00;99.90
47336;DHT22;33068;51.990;5.926;2022-11-20T14:52:13;2.20;99.90
47336;DHT22;33068;51.990;5.926;2022-11-20T14:54:45;2.00;99.90
47336;DHT22;33068;51.990;5.926;2022-11-20T14:57:24;2.10;99.90
47336;DHT22;33068;51.990;5.926;2022-11-20T15:00:06;2.10;99.90
47336;DHT22;33068;51.990;5.926;2022-11-20T15:02:34;2.10;99.90
47336;DHT22;33068;51.990;5.926;2022-11-20T15:05:03;2.10;99.90
47336;DHT22;33068;51.990;5.926;2022-11-20T15:07:32;2.10;99.90
47336;DHT22;33068;51.990;5.926;2022-11-20T15:10:01;2.10;99.90
47336;DHT22;33068;51.990;5.926;2022-11-20T15:12:29;2.10;99.90
47336;DHT22;33068;51.990;5.926;2022-11-20T15:14:56;2.10;99.90
47336;DHT22;33068;51.990;5.926;2022-11-20T15:17:23;2.30;99.90
47336;DHT22;33068;51.990;5.926;2022-11-20T15:19:54;2.30;99.90
47336;DHT22;33068;51.990;5.926;2022-11-20T15:22:23;2.10;99.90
47336;DHT22;33068;51.990;5.926;2022-11-20T15:24:50;2.10;99.90
47336;DHT22;33068;51.990;5.926;2022-11-20T15:27:17;2.10;99.90
47336;DHT22;33068;51.990;5.926;2022-11-20T15:29:44;2.10;99.90
47336;DHT22;33068;51.990;5.926;2022-11-20T15:32:11;2.10;99.90
47336;DHT22;33068;51.990;5.926;2022-11-20T15:34:38;2.20;99.90
47336;DHT22;33068;51.990;5.926;2022-11-20T15:37:05;2.30;99.90
47336;DHT22;33068;51.990;5.926;2022-11-20T15:39:33;2.20;99.90
47336;DHT22;33068;51.990;5.926;2022-11-20T15:42:00;2.20;99.90
47336;DHT22;33068;51.990;5.926;2022-11-20T15:44:27;2.20;99.90
47336;DHT22;33068;51.990;5.926;2022-11-20T15:46:55;2.50;99.90
47336;DHT22;33068;51.990;5.926;2022-11-20T15:49:22;2.30;99.90
47336;DHT22;33068;51.990;5.926;2022-11-20T15:51:49;2.30;99.90
47336;DHT22;33068;51.990;5.926;2022-11-20T15:54:20;2.20;99.90
47336;DHT22;33068;51.990;5.926;2022-11-20T15:56:49;2.30;99.90
47336;DHT22;33068;51.990;5.926;2022-11-20T15:59:18;2.40;99.90
47336;DHT22;33068;51.990;5.926;2022-11-20T16:01:45;2.30;99.90
47336;DHT22;33068;51.990;5.926;2022-11-20T16:04:13;2.30;99.90
47336;DHT22;33068;51.990;5.926;2022-11-20T16:06:41;2.50;99.90
47336;DHT22;33068;51.990;5.926;2022-11-20T16:09:08;2.30;99.90
47336;DHT22;33068;51.990;5.926;2022-11-20T16:11:35;2.30;99.90
47336;DHT22;33068;51.990;5.926;2022-11-20T16:14:05;2.30;99.90
47336;DHT22;33068;51.990;5.926;2022-11-20T16:16:50;2.30;99.90
47336;DHT22;33068;51.990;5.926;2022-11-20T16:19:17;2.30;99.90
47336;DHT22;33068;51.990;5.926;2022-11-20T16:21:45;2.30;99.90
47336;DHT22;33068;51.990;5.926;2022-11-20T16:24:14;2.30;99.90
47336;DHT22;33068;51.990;5.926;2022-11-20T16:26:42;2.20;99.90
47336;DHT22;33068;51.990;5.926;2022-11-20T16:29:10;2.30;99.90
47336;DHT22;33068;51.990;5.926;2022-11-20T16:31:37;2.30;99.90
47336;DHT22;33068;51.990;5.926;2022-11-20T16:34:06;2.20;99.90
47336;DHT22;33068;51.990;5.926;2022-11-20T16:36:33;2.20;99.90
47336;DHT22;33068;51.990;5.926;2022-11-20T16:39:02;2.20;99.90
47336;DHT22;33068;51.990;5.926;2022-11-20T16:41:31;2.20;99.90
47336;DHT22;33068;51.990;5.926;2022-11-20T16:44:00;2.20;99.90
47336;DHT22;33068;51.990;5.926;2022-11-20T16:46:30;2.20;99.90
47336;DHT22;33068;51.990;5.926;2022-11-20T16:48:59;2.30;99.90
47336;DHT22;33068;51.990;5.926;2022-11-20T16:51:29;2.30;99.90
47336;DHT22;33068;51.990;5.926;2022-11-20T16:53:56;2.20;99.90
47336;DHT22;33068;51.990;5.926;2022-11-20T16:56:25;2.30;99.90
47336;DHT22;33068;51.990;5.926;2022-11-20T16:58:54;2.30;99.90
47336;DHT22;33068;51.990;5.926;2022-11-20T17:01:22;2.30;99.90
47336;DHT22;33068;51.990;5.926;2022-11-20T17:03:55;2.30;99.90
47336;DHT22;33068;51.990;5.926;2022-11-20T17:06:25;2.30;99.90
47336;DHT22;33068;51.990;5.926;2022-11-20T17:08:53;2.30;99.90
47336;DHT22;33068;51.990;5.926;2022-11-20T17:11:20;2.40;99.90
47336;DHT22;33068;51.990;5.926;2022-11-20T17:13:48;2.30;99.90
47336;DHT22;33068;51.990;5.926;2022-11-20T17:16:17;2.40;99.90
47336;DHT22;33068;51.990;5.926;2022-11-20T17:18:45;2.30;99.90
47336;DHT22;33068;51.990;5.926;2022-11-20T17:21:13;2.40;99.90
47336;DHT22;33068;51.990;5.926;2022-11-20T17:23:42;2.40;99.90
47336;DHT22;33068;51.990;5.926;2022-11-20T17:26:11;2.40;99.90
47336;DHT22;33068;51.990;5.926;2022-11-20T17:28:39;2.40;99.90
47336;DHT22;33068;51.990;5.926;2022-11-20T17:31:08;2.40;99.90
47336;DHT22;33068;51.990;5.926;2022-11-20T17:33:37;2.50;99.90
47336;DHT22;33068;51.990;5.926;2022-11-20T17:36:06;2.50;99.90
47336;DHT22;33068;51.990;5.926;2022-11-20T17:38:35;2.50;99.90
47336;DHT22;33068;51.990;5.926;2022-11-20T17:41:03;2.50;99.90
47336;DHT22;33068;51.990;5.926;2022-11-20T17:43:31;2.60;99.90
47336;DHT22;33068;51.990;5.926;2022-11-20T17:45:58;2.50;99.90
47336;DHT22;33068;51.990;5.926;2022-11-20T17:48:25;2.50;99.90
47336;DHT22;33068;51.990;5.926;2022-11-20T17:50:58;2.50;99.90
47336;DHT22;33068;51.990;5.926;2022-11-20T17:53:26;2.50;99.90